sensor_id;sensor_type;location;lat;lon;timestamp;temperature;humidity
70548;DHT22;58099;43.406;3.698;2022-08-11T00:01:50;25.30;99.90
70548;DHT22;58099;43.406;3.698;2022-08-11T00:04:20;25.40;99.90
70548;DHT22;58099;43.406;3.698;2022-08-11T00:06:48;25.30;99.90
70548;DHT22;58099;43.406;3.698;2022-08-11T00:09:19;25.40;99.90
70548;DHT22;58099;43.406;3.698;2022-08-11T00:11:53;25.30;99.90
70548;DHT22;58099;43.406;3.698;2022-08-11T00:14:32;25.30;99.90
70548;DHT22;58099;43.406;3.698;2022-08-11T00:17:06;25.30;99.90
70548;DHT22;58099;43.406;3.698;2022-08-11T00:19:44;25.30;99.90
70548;DHT22;58099;43.406;3.698;2022-08-11T00:22:11;25.30;99.90
70548;DHT22;58099;43.406;3.698;2022-08-11T00:24:44;25.30;99.90
70548;DHT22;58099;43.406;3.698;2022-08-11T00:27:10;25.20;99.90
70548;DHT22;58099;43.406;3.698;2022-08-11T00:29:36;25.30;99.90
70548;DHT22;58099;43.406;3.698;2022-08-11T00:32:04;25.20;99.90
70548;DHT22;58099;43.406;3.698;2022-08-11T00:34:36;25.20;99.90
70548;DHT22;58099;43.406;3.698;2022-08-11T00:37:10;25.10;99.90
70548;DHT22;58099;43.406;3.698;2022-08-11T00:39:45;25.10;99.90
70548;DHT22;58099;43.406;3.698;2022-08-11T00:45:10;25.10;99.90
70548;DHT22;58099;43.406;3.698;2022-08-11T00:50:58;25.10;99.90
70548;DHT22;58099;43.406;3.698;2022-08-11T01:04:35;25.10;99.90
70548;DHT22;58099;43.406;3.698;2022-08-11T01:10:02;25.10;99.90
70548;DHT22;58099;43.406;3.698;2022-08-11T01:12:55;25.10;99.90
70548;DHT22;58099;43.406;3.698;2022-08-11T01:22:16;25.10;99.90
70548;DHT22;58099;43.406;3.698;2022-08-11T01:30:49;25.10;99.90
70548;DHT22;58099;43.406;3.698;2022-08-11T01:45:48;25.10;99.90
70548;DHT22;58099;43.406;3.698;2022-08-11T01:48:30;25.10;99.90
70548;DHT22;58099;43.406;3.698;2022-08-11T01:59:42;25.00;99.90
70548;DHT22;58099;43.406;3.698;2022-08-11T02:02:39;25.00;99.90
70548;DHT22;58099;43.406;3.698;2022-08-11T02:28:54;25.00;99.90
70548;DHT22;58099;43.406;3.698;2022-08-11T02:53:38;25.00;99.90
70548;DHT22;58099;43.406;3.698;2022-08-11T02:56:11;25.00;99.90
70548;DHT22;58099;43.406;3.698;2022-08-11T02:59:05;25.00;99.90
70548;DHT22;58099;43.406;3.698;2022-08-11T03:02:28;24.90;99.90
70548;DHT22;58099;43.406;3.698;2022-08-11T03:10:10;24.80;99.90
70548;DHT22;58099;43.406;3.698;2022-08-11T03:15:50;24.80;99.90
70548;DHT22;58099;43.406;3.698;2022-08-11T03:19:02;24.80;99.90
70548;DHT22;58099;43.406;3.698;2022-08-11T03:21:37;24.80;99.90
70548;DHT22;58099;43.406;3.698;2022-08-11T03:35:09;24.80;99.90
70548;DHT22;58099;43.406;3.698;2022-08-11T03:37:50;24.80;99.90
70548;DHT22;58099;43.406;3.698;2022-08-11T03:43:41;24.80;99.90
70548;DHT22;58099;43.406;3.698;2022-08-11T04:00:13;24.70;99.90
70548;DHT22;58099;43.406;3.698;2022-08-11T04:20:21;24.60;99.90
70548;DHT22;58099;43.406;3.698;2022-08-11T04:31:29;24.50;99.90
70548;DHT22;58099;43.406;3.698;2022-08-11T04:45:31;24.30;99.90
70548;DHT22;58099;43.406;3.698;2022-08-11T04:51:25;24.30;99.90
70548;DHT22;58099;43.406;3.698;2022-08-11T05:12:41;24.40;99.90
70548;DHT22;58099;43.406;3.698;2022-08-11T05:15:13;24.40;99.90
70548;DHT22;58099;43.406;3.698;2022-08-11T05:18:12;24.40;99.90
70548;DHT22;58099;43.406;3.698;2022-08-11T05:21:04;24.40;99.90
70548;DHT22;58099;43.406;3.698;2022-08-11T05:24:02;24.40;99.90
70548;DHT22;58099;43.406;3.698;2022-08-11T05:26:48;24.40;99.90
70548;DHT22;58099;43.406;3.698;2022-08-11T05:32:24;24.40;99.90
70548;DHT22;58099;43.406;3.698;2022-08-11T05:35:12;24.40;99.90
70548;DHT22;58099;43.406;3.698;2022-08-11T05:37:42;24.40;99.90
70548;DHT22;58099;43.406;3.698;2022-08-11T05:40:28;24.40;99.90
70548;DHT22;58099;43.406;3.698;2022-08-11T05:43:14;24.50;99.90
70548;DHT22;58099;43.406;3.698;2022-08-11T05:46:00;24.40;99.90
70548;DHT22;58099;43.406;3.698;2022-08-11T05:48:45;24.40;99.90
70548;DHT22;58099;43.406;3.698;2022-08-11T05:51:40;24.40;99.90
70548;DHT22;58099;43.406;3.698;2022-08-11T05:54:26;24.50;99.90
70548;DHT22;58099;43.406;3.698;2022-08-11T05:57:21;24.50;99.90
70548;DHT22;58099;43.406;3.698;2022-08-11T05:59:48;24.50;99.90
70548;DHT22;58099;43.406;3.698;2022-08-11T06:02:15;24.50;99.90
70548;DHT22;58099;43.406;3.698;2022-08-11T06:04:42;24.50;99.90
70548;DHT22;58099;43.406;3.698;2022-08-11T06:07:09;24.50;99.90
70548;DHT22;58099;43.406;3.698;2022-08-11T06:09:57;24.60;99.90
70548;DHT22;58099;43.406;3.698;2022-08-11T06:12:27;24.70;99.90
70548;DHT22;58099;43.406;3.698;2022-08-11T06:15:00;24.90;99.90
70548;DHT22;58099;43.406;3.698;2022-08-11T06:17:28;25.10;99.90
70548;DHT22;58099;43.406;3.698;2022-08-11T06:20:07;25.30;99.90
70548;DHT22;58099;43.406;3.698;2022-08-11T06:22:38;25.40;99.90
70548;DHT22;58099;43.406;3.698;2022-08-11T06:25:07;25.60;99.90
70548;DHT22;58099;43.406;3.698;2022-08-11T06:27:35;25.70;99.90
70548;DHT22;58099;43.406;3.698;2022-08-11T06:30:04;25.80;99.90
70548;DHT22;58099;43.406;3.698;2022-08-11T06:32:50;25.90;99.90
70548;DHT22;58099;43.406;3.698;2022-08-11T06:35:38;26.00;99.90
70548;DHT22;58099;43.406;3.698;2022-08-11T06:38:14;26.10;99.90
70548;DHT22;58099;43.406;3.698;2022-08-11T06:41:03;26.20;99.90
70548;DHT22;58099;43.406;3.698;2022-08-11T06:46:30;26.30;99.90
70548;DHT22;58099;43.406;3.698;2022-08-11T06:48:59;26.50;99.90
70548;DHT22;58099;43.406;3.698;2022-08-11T06:51:27;26.50;99.90
70548;DHT22;58099;43.406;3.698;2022-08-11T06:53:56;26.70;99.90
70548;DHT22;58099;43.406;3.698;2022-08-11T06:56:36;26.70;99.90
70548;DHT22;58099;43.406;3.698;2022-08-11T06:59:22;26.80;99.90
70548;DHT22;58099;43.406;3.698;2022-08-11T07:02:27;26.80;99.90
70548;DHT22;58099;43.406;3.698;2022-08-11T07:14:00;27.40;99.90
70548;DHT22;58099;43.406;3.698;2022-08-11T07:16:48;27.40;99.90
70548;DHT22;58099;43.406;3.698;2022-08-11T07:19:16;27.60;99.90
70548;DHT22;58099;43.406;3.698;2022-08-11T07:22:03;27.60;99.90
70548;DHT22;58099;43.406;3.698;2022-08-11T07:24:59;27.80;99.90
70548;DHT22;58099;43.406;3.698;2022-08-11T07:27:55;28.00;99.90
70548;DHT22;58099;43.406;3.698;2022-08-11T07:30:41;28.00;99.90
70548;DHT22;58099;43.406;3.698;2022-08-11T07:33:09;28.10;99.90
70548;DHT22;58099;43.406;3.698;2022-08-11T07:35:42;28.20;99.90
70548;DHT22;58099;43.406;3.698;2022-08-11T07:38:20;28.20;99.90
70548;DHT22;58099;43.406;3.698;2022-08-11T07:40:47;28.10;99.90
70548;DHT22;58099;43.406;3.698;2022-08-11T07:43:16;28.10;99.90
70548;DHT22;58099;43.406;3.698;2022-08-11T07:45:44;28.10;99.90
70548;DHT22;58099;43.406;3.698;2022-08-11T07:48:29;28.20;99.90
70548;DHT22;58099;43.406;3.698;2022-08-11T07:51:20;28.50;99.90
70548;DHT22;58099;43.406;3.698;2022-08-11T07:54:05;28.30;99.90
70548;DHT22;58099;43.406;3.698;2022-08-11T07:56:36;28.40;99.90
70548;DHT22;58099;43.406;3.698;2022-08-11T07:59:03;28.40;99.90
70548;DHT22;58099;43.406;3.698;2022-08-11T08:01:48;28.50;99.90
70548;DHT22;58099;43.406;3.698;2022-08-11T08:04:33;28.50;99.90
70548;DHT22;58099;43.406;3.698;2022-08-11T08:07:22;28.60;99.90
70548;DHT22;58099;43.406;3.698;2022-08-11T08:10:07;28.70;99.90
70548;DHT22;58099;43.406;3.698;2022-08-11T08:12:54;29.00;99.90
70548;DHT22;58099;43.406;3.698;2022-08-11T08:15:39;29.40;99.90
70548;DHT22;58099;43.406;3.698;2022-08-11T08:18:24;29.40;99.90
70548;DHT22;58099;43.406;3.698;2022-08-11T08:20:50;29.80;99.90
70548;DHT22;58099;43.406;3.698;2022-08-11T08:23:21;29.80;99.90
70548;DHT22;58099;43.406;3.698;2022-08-11T08:25:58;29.40;99.90
70548;DHT22;58099;43.406;3.698;2022-08-11T08:28:27;29.20;99.90
70548;DHT22;58099;43.406;3.698;2022-08-11T08:30:54;29.30;99.90
70548;DHT22;58099;43.406;3.698;2022-08-11T08:33:27;29.20;99.90
70548;DHT22;58099;43.406;3.698;2022-08-11T08:35:58;29.40;99.90
70548;DHT22;58099;43.406;3.698;2022-08-11T08:38:46;29.20;99.90
70548;DHT22;58099;43.406;3.698;2022-08-11T08:41:13;29.20;99.90
70548;DHT22;58099;43.406;3.698;2022-08-11T08:43:42;29.20;99.90
70548;DHT22;58099;43.406;3.698;2022-08-11T08:46:10;29.30;99.90
70548;DHT22;58099;43.406;3.698;2022-08-11T08:48:38;29.40;99.90
70548;DHT22;58099;43.406;3.698;2022-08-11T08:51:10;29.60;99.90
70548;DHT22;58099;43.406;3.698;2022-08-11T08:54:03;29.80;99.90
70548;DHT22;58099;43.406;3.698;2022-08-11T08:56:30;29.70;99.90
70548;DHT22;58099;43.406;3.698;2022-08-11T08:59:00;29.50;99.90
70548;DHT22;58099;43.406;3.698;2022-08-11T09:01:35;29.50;99.90
70548;DHT22;58099;43.406;3.698;2022-08-11T09:04:03;29.80;99.90
70548;DHT22;58099;43.406;3.698;2022-08-11T09:06:32;30.00;99.90
70548;DHT22;58099;43.406;3.698;2022-08-11T09:08:58;29.60;99.90
70548;DHT22;58099;43.406;3.698;2022-08-11T09:11:25;29.80;99.90
70548;DHT22;58099;43.406;3.698;2022-08-11T09:14:10;29.80;99.90
70548;DHT22;58099;43.406;3.698;2022-08-11T09:16:36;29.80;99.90
70548;DHT22;58099;43.406;3.698;2022-08-11T09:19:04;29.60;99.90
70548;DHT22;58099;43.406;3.698;2022-08-11T09:21:32;29.30;99.90
70548;DHT22;58099;43.406;3.698;2022-08-11T09:23:58;29.20;99.90
70548;DHT22;58099;43.406;3.698;2022-08-11T09:26:45;29.20;99.90
70548;DHT22;58099;43.406;3.698;2022-08-11T09:29:28;29.00;99.90
70548;DHT22;58099;43.406;3.698;2022-08-11T09:31:55;28.90;99.90
70548;DHT22;58099;43.406;3.698;2022-08-11T09:34:23;29.10;99.90
70548;DHT22;58099;43.406;3.698;2022-08-11T09:36:52;29.30;99.90
70548;DHT22;58099;43.406;3.698;2022-08-11T09:39:38;29.10;99.90
70548;DHT22;58099;43.406;3.698;2022-08-11T09:42:24;29.40;99.90
70548;DHT22;58099;43.406;3.698;2022-08-11T09:45:11;29.60;99.90
70548;DHT22;58099;43.406;3.698;2022-08-11T09:47:37;29.90;99.90
70548;DHT22;58099;43.406;3.698;2022-08-11T09:50:04;30.10;99.90
70548;DHT22;58099;43.406;3.698;2022-08-11T09:52:35;30.10;99.40
70548;DHT22;58099;43.406;3.698;2022-08-11T09:55:02;30.00;99.10
70548;DHT22;58099;43.406;3.698;2022-08-11T09:57:44;30.30;99.00
70548;DHT22;58099;43.406;3.698;2022-08-11T10:00:30;30.10;98.10
70548;DHT22;58099;43.406;3.698;2022-08-11T10:02:57;30.30;98.30
70548;DHT22;58099;43.406;3.698;2022-08-11T10:05:23;30.60;98.50
70548;DHT22;58099;43.406;3.698;2022-08-11T10:08:11;30.20;98.70
70548;DHT22;58099;43.406;3.698;2022-08-11T10:10:39;30.20;98.70
70548;DHT22;58099;43.406;3.698;2022-08-11T10:13:12;30.00;99.00
70548;DHT22;58099;43.406;3.698;2022-08-11T10:15:42;29.90;99.10
70548;DHT22;58099;43.406;3.698;2022-08-11T10:18:14;29.90;99.40
70548;DHT22;58099;43.406;3.698;2022-08-11T10:21:08;29.90;99.20
70548;DHT22;58099;43.406;3.698;2022-08-11T10:23:36;30.00;99.40
70548;DHT22;58099;43.406;3.698;2022-08-11T10:26:23;29.90;99.50
70548;DHT22;58099;43.406;3.698;2022-08-11T10:29:09;30.60;99.10
70548;DHT22;58099;43.406;3.698;2022-08-11T10:31:58;30.90;98.40
70548;DHT22;58099;43.406;3.698;2022-08-11T10:34:45;31.10;97.60
70548;DHT22;58099;43.406;3.698;2022-08-11T10:37:11;30.90;96.70
70548;DHT22;58099;43.406;3.698;2022-08-11T10:39:39;30.90;96.60
70548;DHT22;58099;43.406;3.698;2022-08-11T10:42:05;31.00;96.00
70548;DHT22;58099;43.406;3.698;2022-08-11T10:44:52;31.20;96.40
70548;DHT22;58099;43.406;3.698;2022-08-11T10:47:18;31.20;96.60
70548;DHT22;58099;43.406;3.698;2022-08-11T10:50:09;30.10;97.60
70548;DHT22;58099;43.406;3.698;2022-08-11T10:52:56;29.90;97.70
70548;DHT22;58099;43.406;3.698;2022-08-11T10:55:42;29.30;98.50
70548;DHT22;58099;43.406;3.698;2022-08-11T10:58:27;29.30;98.30
70548;DHT22;58099;43.406;3.698;2022-08-11T11:01:22;30.10;96.60
70548;DHT22;58099;43.406;3.698;2022-08-11T11:03:51;30.90;97.10
70548;DHT22;58099;43.406;3.698;2022-08-11T11:06:37;30.90;97.00
70548;DHT22;58099;43.406;3.698;2022-08-11T11:09:16;30.90;97.80
70548;DHT22;58099;43.406;3.698;2022-08-11T11:11:55;30.60;98.00
70548;DHT22;58099;43.406;3.698;2022-08-11T11:14:41;29.80;96.50
70548;DHT22;58099;43.406;3.698;2022-08-11T11:17:36;30.00;98.10
70548;DHT22;58099;43.406;3.698;2022-08-11T11:20:57;30.60;97.70
70548;DHT22;58099;43.406;3.698;2022-08-11T11:23:28;30.10;98.70
70548;DHT22;58099;43.406;3.698;2022-08-11T11:29:13;28.60;99.90
70548;DHT22;58099;43.406;3.698;2022-08-11T11:34:44;29.50;99.70
70548;DHT22;58099;43.406;3.698;2022-08-11T11:37:13;29.80;98.30
70548;DHT22;58099;43.406;3.698;2022-08-11T11:39:41;29.70;98.50
70548;DHT22;58099;43.406;3.698;2022-08-11T11:42:09;30.00;97.70
70548;DHT22;58099;43.406;3.698;2022-08-11T11:44:40;29.50;96.80
70548;DHT22;58099;43.406;3.698;2022-08-11T11:47:07;29.50;99.50
70548;DHT22;58099;43.406;3.698;2022-08-11T11:49:36;30.00;99.70
70548;DHT22;58099;43.406;3.698;2022-08-11T11:52:06;30.20;99.20
70548;DHT22;58099;43.406;3.698;2022-08-11T11:54:33;29.60;99.90
70548;DHT22;58099;43.406;3.698;2022-08-11T11:57:01;29.10;99.90
70548;DHT22;58099;43.406;3.698;2022-08-11T11:59:50;28.40;99.90
70548;DHT22;58099;43.406;3.698;2022-08-11T12:02:36;28.60;99.90
70548;DHT22;58099;43.406;3.698;2022-08-11T12:05:04;29.50;99.40
70548;DHT22;58099;43.406;3.698;2022-08-11T12:07:31;29.20;99.90
70548;DHT22;58099;43.406;3.698;2022-08-11T12:10:16;28.90;99.90
70548;DHT22;58099;43.406;3.698;2022-08-11T12:12:44;29.40;99.90
70548;DHT22;58099;43.406;3.698;2022-08-11T12:15:29;28.80;99.90
70548;DHT22;58099;43.406;3.698;2022-08-11T12:17:56;28.60;99.90
70548;DHT22;58099;43.406;3.698;2022-08-11T12:20:22;28.50;99.90
70548;DHT22;58099;43.406;3.698;2022-08-11T12:22:49;28.80;99.90
70548;DHT22;58099;43.406;3.698;2022-08-11T12:25:33;28.50;99.90
70548;DHT22;58099;43.406;3.698;2022-08-11T12:28:18;29.00;99.90
70548;DHT22;58099;43.406;3.698;2022-08-11T12:30:48;28.60;99.90
70548;DHT22;58099;43.406;3.698;2022-08-11T12:33:15;28.60;99.90
70548;DHT22;58099;43.406;3.698;2022-08-11T12:35:42;28.50;99.90
70548;DHT22;58099;43.406;3.698;2022-08-11T12:38:08;28.60;99.90
70548;DHT22;58099;43.406;3.698;2022-08-11T12:40:36;28.40;99.90
70548;DHT22;58099;43.406;3.698;2022-08-11T12:43:29;28.30;99.90
70548;DHT22;58099;43.406;3.698;2022-08-11T12:46:34;28.80;99.90
70548;DHT22;58099;43.406;3.698;2022-08-11T12:49:19;28.30;99.90
70548;DHT22;58099;43.406;3.698;2022-08-11T12:52:08;28.60;99.90
70548;DHT22;58099;43.406;3.698;2022-08-11T12:54:49;29.00;99.90
70548;DHT22;58099;43.406;3.698;2022-08-11T12:57:34;28.60;99.90
70548;DHT22;58099;43.406;3.698;2022-08-11T13:00:39;28.00;99.90
70548;DHT22;58099;43.406;3.698;2022-08-11T13:03:23;28.90;99.90
70548;DHT22;58099;43.406;3.698;2022-08-11T13:06:08;28.60;99.90
70548;DHT22;58099;43.406;3.698;2022-08-11T13:08:36;28.20;99.90
70548;DHT22;58099;43.406;3.698;2022-08-11T13:11:03;28.40;99.90
70548;DHT22;58099;43.406;3.698;2022-08-11T13:13:50;28.20;99.90
70548;DHT22;58099;43.406;3.698;2022-08-11T13:16:17;28.10;99.90
70548;DHT22;58099;43.406;3.698;2022-08-11T13:18:43;28.00;99.90
70548;DHT22;58099;43.406;3.698;2022-08-11T13:21:13;28.60;99.90
70548;DHT22;58099;43.406;3.698;2022-08-11T13:23:39;28.60;99.90
70548;DHT22;58099;43.406;3.698;2022-08-11T13:26:06;28.40;99.90
70548;DHT22;58099;43.406;3.698;2022-08-11T13:28:39;28.20;99.90
70548;DHT22;58099;43.406;3.698;2022-08-11T13:31:05;27.90;99.90
70548;DHT22;58099;43.406;3.698;2022-08-11T13:33:49;28.00;99.90
70548;DHT22;58099;43.406;3.698;2022-08-11T13:36:21;27.90;99.90
70548;DHT22;58099;43.406;3.698;2022-08-11T13:38:51;27.90;99.90
70548;DHT22;58099;43.406;3.698;2022-08-11T13:41:17;28.20;99.90
70548;DHT22;58099;43.406;3.698;2022-08-11T13:44:02;28.60;99.90
70548;DHT22;58099;43.406;3.698;2022-08-11T13:46:28;28.80;99.90
70548;DHT22;58099;43.406;3.698;2022-08-11T13:48:56;28.50;99.90
70548;DHT22;58099;43.406;3.698;2022-08-11T13:51:23;28.30;99.90
70548;DHT22;58099;43.406;3.698;2022-08-11T13:53:58;28.00;99.90
70548;DHT22;58099;43.406;3.698;2022-08-11T13:56:25;28.00;99.90
70548;DHT22;58099;43.406;3.698;2022-08-11T13:58:51;28.00;99.90
70548;DHT22;58099;43.406;3.698;2022-08-11T14:01:19;27.80;99.90
70548;DHT22;58099;43.406;3.698;2022-08-11T14:03:46;28.00;99.90
70548;DHT22;58099;43.406;3.698;2022-08-11T14:06:14;28.10;99.90
70548;DHT22;58099;43.406;3.698;2022-08-11T14:08:42;27.80;99.90
70548;DHT22;58099;43.406;3.698;2022-08-11T14:11:10;27.80;99.90
70548;DHT22;58099;43.406;3.698;2022-08-11T14:13:55;28.30;99.90
70548;DHT22;58099;43.406;3.698;2022-08-11T14:16:30;28.00;99.90
70548;DHT22;58099;43.406;3.698;2022-08-11T14:19:02;28.10;99.90
70548;DHT22;58099;43.406;3.698;2022-08-11T14:21:32;28.00;99.90
70548;DHT22;58099;43.406;3.698;2022-08-11T14:24:18;28.00;99.90
70548;DHT22;58099;43.406;3.698;2022-08-11T14:26:46;27.80;99.90
70548;DHT22;58099;43.406;3.698;2022-08-11T14:29:16;27.90;99.90
70548;DHT22;58099;43.406;3.698;2022-08-11T14:34:11;27.80;99.90
70548;DHT22;58099;43.406;3.698;2022-08-11T14:36:42;28.00;99.90
70548;DHT22;58099;43.406;3.698;2022-08-11T14:39:16;28.00;99.90
70548;DHT22;58099;43.406;3.698;2022-08-11T14:41:54;28.30;99.90
70548;DHT22;58099;43.406;3.698;2022-08-11T14:44:45;27.80;99.90
70548;DHT22;58099;43.406;3.698;2022-08-11T14:47:50;27.60;99.90
70548;DHT22;58099;43.406;3.698;2022-08-11T14:50:19;27.70;99.90
70548;DHT22;58099;43.406;3.698;2022-08-11T14:52:53;27.40;99.90
70548;DHT22;58099;43.406;3.698;2022-08-11T14:55:22;27.50;99.90
70548;DHT22;58099;43.406;3.698;2022-08-11T14:58:12;27.40;99.90
70548;DHT22;58099;43.406;3.698;2022-08-11T15:00:40;27.40;99.90
70548;DHT22;58099;43.406;3.698;2022-08-11T15:03:07;27.30;99.90
70548;DHT22;58099;43.406;3.698;2022-08-11T15:05:40;27.50;99.90
70548;DHT22;58099;43.406;3.698;2022-08-11T15:08:07;27.60;99.90
70548;DHT22;58099;43.406;3.698;2022-08-11T15:10:33;27.20;99.90
70548;DHT22;58099;43.406;3.698;2022-08-11T15:13:01;27.20;99.90
70548;DHT22;58099;43.406;3.698;2022-08-11T15:15:28;27.30;99.90
70548;DHT22;58099;43.406;3.698;2022-08-11T15:18:14;27.30;99.90
70548;DHT22;58099;43.406;3.698;2022-08-11T15:20:42;27.30;99.90
70548;DHT22;58099;43.406;3.698;2022-08-11T15:23:27;27.30;99.90
70548;DHT22;58099;43.406;3.698;2022-08-11T15:26:29;27.10;99.90
70548;DHT22;58099;43.406;3.698;2022-08-11T15:29:20;27.10;99.90
70548;DHT22;58099;43.406;3.698;2022-08-11T15:32:07;27.00;99.90
70548;DHT22;58099;43.406;3.698;2022-08-11T15:34:50;27.00;99.90
70548;DHT22;58099;43.406;3.698;2022-08-11T15:37:37;27.10;99.90
70548;DHT22;58099;43.406;3.698;2022-08-11T15:40:20;27.10;99.90
70548;DHT22;58099;43.406;3.698;2022-08-11T15:43:14;27.10;99.90
70548;DHT22;58099;43.406;3.698;2022-08-11T15:46:05;27.10;99.90
70548;DHT22;58099;43.406;3.698;2022-08-11T15:51:10;27.10;99.90
70548;DHT22;58099;43.406;3.698;2022-08-11T15:53:48;27.30;99.90
70548;DHT22;58099;43.406;3.698;2022-08-11T15:56:16;27.60;99.90
70548;DHT22;58099;43.406;3.698;2022-08-11T15:58:45;27.50;99.90
70548;DHT22;58099;43.406;3.698;2022-08-11T16:01:31;27.40;99.90
70548;DHT22;58099;43.406;3.698;2022-08-11T16:04:20;27.50;99.90
70548;DHT22;58099;43.406;3.698;2022-08-11T16:12:17;27.20;99.90
70548;DHT22;58099;43.406;3.698;2022-08-11T16:14:50;27.20;99.90
70548;DHT22;58099;43.406;3.698;2022-08-11T16:17:40;27.00;99.90
70548;DHT22;58099;43.406;3.698;2022-08-11T16:20:09;27.30;99.90
70548;DHT22;58099;43.406;3.698;2022-08-11T16:22:38;27.10;99.90
70548;DHT22;58099;43.406;3.698;2022-08-11T16:25:19;27.20;99.90
70548;DHT22;58099;43.406;3.698;2022-08-11T16:27:51;27.10;99.90
70548;DHT22;58099;43.406;3.698;2022-08-11T16:30:18;27.00;99.90
70548;DHT22;58099;43.406;3.698;2022-08-11T16:32:47;26.80;99.90
70548;DHT22;58099;43.406;3.698;2022-08-11T16:35:26;26.90;99.90
70548;DHT22;58099;43.406;3.698;2022-08-11T16:38:13;26.90;99.90
70548;DHT22;58099;43.406;3.698;2022-08-11T16:40:59;26.80;99.90
70548;DHT22;58099;43.406;3.698;2022-08-11T16:43:29;26.60;99.90
70548;DHT22;58099;43.406;3.698;2022-08-11T16:46:17;26.50;99.90
70548;DHT22;58099;43.406;3.698;2022-08-11T16:49:05;26.40;99.90
70548;DHT22;58099;43.406;3.698;2022-08-11T16:51:32;26.30;99.90
70548;DHT22;58099;43.406;3.698;2022-08-11T16:54:01;26.30;99.90
70548;DHT22;58099;43.406;3.698;2022-08-11T16:56:34;26.30;99.90
70548;DHT22;58099;43.406;3.698;2022-08-11T16:59:03;26.30;99.90
70548;DHT22;58099;43.406;3.698;2022-08-11T17:04:47;26.30;99.90
70548;DHT22;58099;43.406;3.698;2022-08-11T17:07:37;26.20;99.90
70548;DHT22;58099;43.406;3.698;2022-08-11T17:10:29;26.20;99.90
70548;DHT22;58099;43.406;3.698;2022-08-11T17:14:03;26.30;99.90
70548;DHT22;58099;43.406;3.698;2022-08-11T17:16:10;26.10;99.90
70548;DHT22;58099;43.406;3.698;2022-08-11T17:18:48;26.10;99.90
70548;DHT22;58099;43.406;3.698;2022-08-11T17:21:34;26.10;99.90
70548;DHT22;58099;43.406;3.698;2022-08-11T17:24:22;26.20;99.90
70548;DHT22;58099;43.406;3.698;2022-08-11T17:26:51;26.10;99.90
70548;DHT22;58099;43.406;3.698;2022-08-11T17:29:31;26.10;99.90
70548;DHT22;58099;43.406;3.698;2022-08-11T17:32:02;26.10;99.90
70548;DHT22;58099;43.406;3.698;2022-08-11T17:34:48;26.00;99.90
70548;DHT22;58099;43.406;3.698;2022-08-11T17:37:34;26.10;99.90
70548;DHT22;58099;43.406;3.698;2022-08-11T17:40:04;26.10;99.90
70548;DHT22;58099;43.406;3.698;2022-08-11T17:42:32;26.10;99.90
70548;DHT22;58099;43.406;3.698;2022-08-11T17:45:20;26.10;99.90
70548;DHT22;58099;43.406;3.698;2022-08-11T17:48:05;26.10;99.90
70548;DHT22;58099;43.406;3.698;2022-08-11T17:51:12;26.10;99.90
70548;DHT22;58099;43.406;3.698;2022-08-11T17:53:41;26.00;99.90
70548;DHT22;58099;43.406;3.698;2022-08-11T17:56:30;26.00;99.90
70548;DHT22;58099;43.406;3.698;2022-08-11T17:59:16;25.90;99.90
70548;DHT22;58099;43.406;3.698;2022-08-11T18:02:03;26.00;99.90
70548;DHT22;58099;43.406;3.698;2022-08-11T18:05:05;26.10;99.90
70548;DHT22;58099;43.406;3.698;2022-08-11T18:07:32;26.10;99.90
70548;DHT22;58099;43.406;3.698;2022-08-11T18:10:19;26.20;99.90
70548;DHT22;58099;43.406;3.698;2022-08-11T18:13:05;26.20;99.90
70548;DHT22;58099;43.406;3.698;2022-08-11T18:15:51;26.30;99.90
70548;DHT22;58099;43.406;3.698;2022-08-11T18:18:35;26.20;99.90
70548;DHT22;58099;43.406;3.698;2022-08-11T18:21:20;26.20;99.90
70548;DHT22;58099;43.406;3.698;2022-08-11T18:24:09;26.20;99.90
70548;DHT22;58099;43.406;3.698;2022-08-11T18:26:58;26.10;99.90
70548;DHT22;58099;43.406;3.698;2022-08-11T18:29:44;26.10;99.90
70548;DHT22;58099;43.406;3.698;2022-08-11T18:32:33;26.10;99.90
70548;DHT22;58099;43.406;3.698;2022-08-11T18:35:19;26.10;99.90
70548;DHT22;58099;43.406;3.698;2022-08-11T18:38:09;26.10;99.90
70548;DHT22;58099;43.406;3.698;2022-08-11T18:40:54;26.20;99.90
70548;DHT22;58099;43.406;3.698;2022-08-11T18:43:45;26.20;99.90
70548;DHT22;58099;43.406;3.698;2022-08-11T18:46:36;26.20;99.90
70548;DHT22;58099;43.406;3.698;2022-08-11T18:49:24;26.20;99.90
70548;DHT22;58099;43.406;3.698;2022-08-11T18:52:13;26.20;99.90
70548;DHT22;58099;43.406;3.698;2022-08-11T18:54:59;26.20;99.90
70548;DHT22;58099;43.406;3.698;2022-08-11T18:57:48;26.20;99.90
70548;DHT22;58099;43.406;3.698;2022-08-11T19:00:35;26.20;99.90
70548;DHT22;58099;43.406;3.698;2022-08-11T19:03:21;26.30;99.90
70548;DHT22;58099;43.406;3.698;2022-08-11T19:06:08;26.20;99.90
70548;DHT22;58099;43.406;3.698;2022-08-11T19:08:56;26.20;99.90
70548;DHT22;58099;43.406;3.698;2022-08-11T19:11:44;26.20;99.90
70548;DHT22;58099;43.406;3.698;2022-08-11T19:14:30;26.00;99.90
70548;DHT22;58099;43.406;3.698;2022-08-11T19:17:15;26.00;99.90
70548;DHT22;58099;43.406;3.698;2022-08-11T19:20:24;25.90;99.90
70548;DHT22;58099;43.406;3.698;2022-08-11T19:23:10;26.00;99.90
70548;DHT22;58099;43.406;3.698;2022-08-11T19:25:56;26.00;99.90
70548;DHT22;58099;43.406;3.698;2022-08-11T19:28:44;26.10;99.90
70548;DHT22;58099;43.406;3.698;2022-08-11T19:31:29;26.20;99.90
70548;DHT22;58099;43.406;3.698;2022-08-11T19:34:17;26.20;99.90
70548;DHT22;58099;43.406;3.698;2022-08-11T19:37:03;26.30;99.90
70548;DHT22;58099;43.406;3.698;2022-08-11T19:39:51;26.10;99.90
70548;DHT22;58099;43.406;3.698;2022-08-11T19:42:36;26.10;99.90
70548;DHT22;58099;43.406;3.698;2022-08-11T19:45:21;26.10;99.90
70548;DHT22;58099;43.406;3.698;2022-08-11T19:48:05;26.10;99.90
70548;DHT22;58099;43.406;3.698;2022-08-11T19:50:51;26.10;99.90
70548;DHT22;58099;43.406;3.698;2022-08-11T19:53:36;26.10;99.90
70548;DHT22;58099;43.406;3.698;2022-08-11T19:56:21;26.20;99.90
70548;DHT22;58099;43.406;3.698;2022-08-11T19:59:06;26.20;99.90
70548;DHT22;58099;43.406;3.698;2022-08-11T20:01:51;26.30;99.90
70548;DHT22;58099;43.406;3.698;2022-08-11T20:04:35;26.30;99.90
70548;DHT22;58099;43.406;3.698;2022-08-11T20:07:20;26.20;99.90
70548;DHT22;58099;43.406;3.698;2022-08-11T20:10:06;26.30;99.90
70548;DHT22;58099;43.406;3.698;2022-08-11T20:12:51;26.30;99.90
70548;DHT22;58099;43.406;3.698;2022-08-11T20:15:38;26.30;99.90
70548;DHT22;58099;43.406;3.698;2022-08-11T20:18:23;26.30;99.90
70548;DHT22;58099;43.406;3.698;2022-08-11T20:21:12;26.30;99.90
70548;DHT22;58099;43.406;3.698;2022-08-11T20:23:59;26.30;99.90
70548;DHT22;58099;43.406;3.698;2022-08-11T20:26:45;26.20;99.90
70548;DHT22;58099;43.406;3.698;2022-08-11T20:29:30;26.30;99.90
70548;DHT22;58099;43.406;3.698;2022-08-11T20:32:16;26.30;99.90